• Join FlightAware (Why Join?)
  • Login
  • US Flag 
06:19AM EDT


 

Airport Tracker/Info


-or-


 

Live Flight TrackerFlight Track Log ✈ JBU917 ✈ 08-Jul-2013 ✈ KBOS - KJFK

Flight Track Log - Related Links

Times and Time Zones

All times are in EDT time to prevent confusion due to time zone crossing. See the JBU917 flight status page for this flight to view local times or setup timezone preferences in your user account.

Time Position Orientation Groundspeed Altitude Reporting Facility
EDT Latitude Longitude Course Direction KTS MPH feet Rate Location/Type
06:05AM 42.3500 -71.0167 213° Southwest 158 182 800  Level KA90
06:06AM 42.3000 -70.9500 135° Southeast 242 278 2,800 2,040 Climbing KA90
06:07AM 42.3333 -70.8500 66° East 285 328 5,600 2,700 Climbing KA90
06:08AM 41.8007 -70.7551 206° Southwest  Level FlightAware Approximate
06:08AM 42.3167 -70.7333 101° East 306 352 8,300  Level KA90
06:09AM 41.7545 -70.7919 213° Southwest  Level FlightAware Approximate
06:09AM 42.2500 -70.6667 143° Southeast 299 344 10,900  Level KA90
06:10AM 41.7095 -70.8314 213° Southwest  Level FlightAware Approximate
06:11AM 42.1567 -70.6253 162° South 328 377 12,700  Level Boston Center
06:12AM 42.0653 -70.6531 193° South 328 377 15,300 2,280 Climbing Boston Center
06:13AM 41.9744 -70.6975 200° South 333 383 17,300 2,160 Climbing Boston Center
06:14AM 41.8922 -70.7836 218° Southwest 333 383 19,700 1,920 Climbing Boston Center
06:15AM 41.8225 -70.8661 221° Southwest 353 406 21,200 1,140 Climbing Boston Center
06:16AM 41.7403 -70.9544 219° Southwest 374 430 22,000 360 Climbing Boston Center
06:17AM 41.6622 -71.0453 221° Southwest 379 436 22,000  Level Boston Center
06:18AM 41.5800 -71.1358 219° Southwest 379 436 22,000  Level Boston Center
06:19AM 41.5019 -71.2206 219° Southwest 379 436 22,000  Level Boston Center
06:20AM 41.4214 -71.3106 220° Southwest 379 436 22,000  Level Boston Center
06:21AM 41.3411 -71.3950 218° Southwest 374 430 22,000  Level Boston Center
06:22AM 41.2625 -71.4847 221° Southwest 374 430 22,000  Level Boston Center
06:23AM 41.1758 -71.5742 218° Southwest 374 430 22,000  Level Boston Center
06:24AM 41.1497 -71.7014 255° West 347 399 22,000  Level Boston Center
06:25AM 41.1339 -71.8367 261° West 352 405 22,000  Level Boston Center
06:26AM 41.1178 -71.9772 261° West 360 414 22,000 -600 Level Boston Center
06:27AM 41.0953 -72.1289 259° West 372 428 20,700 -1,620 Descending Boston Center
06:28AM 41.0664 -72.2500 252° West 365 420 18,800 -1,860 Descending Boston Center
06:29AM 41.0353 -72.3714 251° West 358 412 17,000 -1,800 Descending Boston Center
06:30AM 41.0083 -72.4869 253° West 345 397 15,200 -1,800 Descending Boston Center
06:31AM 40.9811 -72.6022 253° West 340 391 13,500 -1,560 Descending Boston Center
06:32AM 40.9539 -72.7067 251° West 340 391 12,100 -960 Descending Boston Center
06:32AM 40.9333 -72.7833 250° West 278 320 12,000 -120 Descending New York TRACON
06:33AM 40.9000 -72.8333 229° Southwest 268 308 12,000 -180 Level New York TRACON
06:34AM 40.8500 -72.9000 225° Southwest 269 310 11,700 -960 Descending New York TRACON
06:35AM 40.7833 -72.9667 217° Southwest 267 307 10,200 -1,560 Descending New York TRACON
06:36AM 40.7500 -73.0333 237° Southwest 260 299 8,600 -1,560 Descending New York TRACON
06:37AM 40.7333 -73.1000 252° West 255 293 7,400 -1,560 Descending New York TRACON
06:38AM 40.7167 -73.2000 258° West 251 289 5,800 -1,200 Descending New York TRACON
06:39AM 40.7167 -73.3000 270° West 245 282 5,000 -420 Descending New York TRACON
06:40AM 40.7167 -73.3833 270° West 249 287 5,000  Level New York TRACON
06:41AM 40.7167 -73.4500 270° West 234 269 5,000 -540 Level New York TRACON
06:42AM 40.7333 -73.5333 285° West 212 244 4,000 -1,320 Descending New York TRACON
06:43AM 40.7500 -73.6000 288° West 209 241 2,400 -1,140 Descending New York TRACON
06:44AM 40.7500 -73.6667 270° West 185 213 1,800 -540 Descending New York TRACON
06:45AM 40.7000 -73.7000 207° Southwest 173 199 1,400 -600 Descending New York TRACON
06:46AM 40.6667 -73.7333 217° Southwest 138 159 700 -720 Descending New York TRACON
06:48AM 40.6333 -73.7667 252° West  Level FlightAware Approximate
06:55AM 40.6398 -73.7789 252° West  Level Estimated